createdAt,value
2022-11-30T00:00:57.239Z,99062.59
2022-11-30T00:03:25.810Z,99065.28
2022-11-30T00:05:55.605Z,99059.06
2022-11-30T00:08:26.913Z,99054.53
2022-11-30T00:10:55.376Z,99062.78
2022-11-30T00:13:24.089Z,99058.25
2022-11-30T00:15:52.477Z,99053.84
2022-11-30T00:18:20.877Z,99061.91
2022-11-30T00:20:49.251Z,99064.59
2022-11-30T00:23:19.122Z,99064.59
2022-11-30T00:25:47.640Z,99061.91
2022-11-30T00:28:16.034Z,99062.94
2022-11-30T00:30:44.399Z,99060.25
2022-11-30T00:33:12.882Z,99067.47
2022-11-30T00:35:44.645Z,99069.13
2022-11-30T00:38:13.006Z,99071.81
2022-11-30T00:40:42.939Z,99070.16
2022-11-30T00:43:11.365Z,99075.53
2022-11-30T00:45:39.980Z,99072.84
2022-11-30T00:48:08.477Z,99077.38
2022-11-30T00:50:37.019Z,99078.38
2022-11-30T00:53:05.657Z,99072.16
2022-11-30T00:55:36.852Z,99073.00
2022-11-30T00:58:07.175Z,99076.69
2022-11-30T01:00:35.906Z,99072.34
2022-11-30T01:03:04.797Z,99077.53
2022-11-30T01:05:34.602Z,99073.16
2022-11-30T01:08:03.242Z,99065.94
2022-11-30T01:10:31.608Z,99065.94
2022-11-30T01:13:00.032Z,99070.47
2022-11-30T01:15:30.447Z,99068.78
2022-11-30T01:18:00.503Z,99066.09
2022-11-30T01:20:28.979Z,99066.94
2022-11-30T01:22:57.409Z,99065.09
2022-11-30T01:25:25.787Z,99060.72
2022-11-30T01:27:54.186Z,99070.47
2022-11-30T01:30:22.591Z,99071.47
2022-11-30T01:32:52.300Z,99079.53
2022-11-30T01:35:20.874Z,99077.72
2022-11-30T01:37:49.267Z,99085.78
2022-11-30T01:40:17.856Z,99083.22
2022-11-30T01:42:49.163Z,99084.91
2022-11-30T01:45:17.679Z,99080.53
2022-11-30T01:47:48.823Z,99080.53
2022-11-30T01:50:20.833Z,99077.84
2022-11-30T01:52:52.024Z,99078.69
2022-11-30T01:55:22.014Z,99076.19
2022-11-30T01:57:52.421Z,99076.19
2022-11-30T02:00:21.248Z,99081.56
2022-11-30T02:02:56.680Z,99075.31
2022-11-30T02:05:26.571Z,99078.88
2022-11-30T02:07:55.002Z,99074.47
2022-11-30T02:10:27.051Z,99078.19
2022-11-30T02:13:21.708Z,99074.47
2022-11-30T02:15:55.108Z,99078.19
2022-11-30T02:18:26.942Z,99076.31
2022-11-30T02:21:03.068Z,99079.00
2022-11-30T02:23:52.299Z,99085.22
2022-11-30T02:26:39.899Z,99080.69
2022-11-30T02:29:15.397Z,99087.91
2022-11-30T02:31:46.273Z,99076.31
2022-11-30T02:34:15.375Z,99075.50
2022-11-30T02:36:43.944Z,99078.19
2022-11-30T02:39:12.774Z,99086.25
2022-11-30T02:41:41.668Z,99083.56
2022-11-30T02:44:12.346Z,99075.50
2022-11-30T02:46:54.111Z,99088.94
2022-11-30T02:49:28.190Z,99082.72
2022-11-30T02:51:56.775Z,99088.94
2022-11-30T02:54:25.766Z,99088.94
2022-11-30T02:56:54.197Z,99091.63
2022-11-30T02:59:24.056Z,99097.97
2022-11-30T03:01:52.660Z,99097.00
2022-11-30T03:04:21.001Z,99096.16
2022-11-30T03:06:50.056Z,99090.78
2022-11-30T03:09:18.498Z,99091.75
2022-11-30T03:11:47.001Z,99097.13
2022-11-30T03:14:15.458Z,99086.38
2022-11-30T03:16:45.324Z,99097.97
2022-11-30T03:19:14.350Z,99098.84
2022-11-30T03:21:43.075Z,99087.41
2022-11-30T03:24:11.605Z,99096.31
2022-11-30T03:26:40.025Z,99095.47
2022-11-30T03:29:08.486Z,99097.31
2022-11-30T03:31:36.884Z,99102.50
2022-11-30T03:34:06.915Z,99106.03
2022-11-30T03:36:35.508Z,99098.16
2022-11-30T03:39:04.751Z,99102.69
2022-11-30T03:41:33.223Z,99102.69
2022-11-30T03:44:02.217Z,99112.44
2022-11-30T03:46:30.718Z,99105.38
2022-11-30T03:48:59.070Z,99100.84
2022-11-30T03:51:28.909Z,99102.69
2022-11-30T03:53:57.605Z,99105.38
2022-11-30T03:56:25.988Z,99101.81
2022-11-30T03:58:54.453Z,99109.06
2022-11-30T04:01:23.913Z,99119.81
2022-11-30T04:03:52.754Z,99119.81
2022-11-30T04:06:21.731Z,99122.50
2022-11-30T04:08:51.551Z,99119.81
2022-11-30T04:11:19.914Z,99119.81
2022-11-30T04:13:48.600Z,99123.34
2022-11-30T04:16:17.007Z,99127.88
2022-11-30T04:18:45.493Z,99128.88
2022-11-30T04:21:13.955Z,99124.34
2022-11-30T04:23:42.457Z,99120.81
2022-11-30T04:26:14.033Z,99124.34
2022-11-30T04:28:42.640Z,99131.56
2022-11-30T04:31:11.361Z,99130.56
2022-11-30T04:33:39.697Z,99128.88
2022-11-30T04:36:09.606Z,99122.50
2022-11-30T04:38:38.305Z,99129.72
2022-11-30T04:41:09.099Z,99129.72
2022-11-30T04:43:39.027Z,99124.34
2022-11-30T04:46:07.740Z,99137.78
2022-11-30T04:48:36.409Z,99142.31
2022-11-30T04:51:06.231Z,99139.63
2022-11-30T04:53:34.650Z,99135.94
2022-11-30T04:56:07.405Z,99128.88
2022-11-30T04:58:36.058Z,99134.25
2022-11-30T05:01:06.202Z,99141.50
2022-11-30T05:03:34.616Z,99139.63
2022-11-30T05:06:03.324Z,99134.41
2022-11-30T05:08:31.676Z,99137.09
2022-11-30T05:11:00.259Z,99135.28
2022-11-30T05:13:28.743Z,99133.41
2022-11-30T05:15:57.140Z,99139.78
2022-11-30T05:18:27.281Z,99138.81
2022-11-30T05:20:55.750Z,99137.97
2022-11-30T05:23:24.323Z,99143.34
2022-11-30T05:25:52.660Z,99147.00
2022-11-30T05:28:21.351Z,99150.72
2022-11-30T05:30:49.685Z,99156.09
2022-11-30T05:33:18.031Z,99156.09
2022-11-30T05:35:47.942Z,99160.75
2022-11-30T05:38:16.316Z,99159.22
2022-11-30T05:40:44.677Z,99159.38
2022-11-30T05:43:13.273Z,99154.19
2022-11-30T05:45:41.703Z,99157.00
2022-11-30T05:48:10.142Z,99160.69
2022-11-30T05:50:38.558Z,99156.16
2022-11-30T05:53:08.383Z,99167.06
2022-11-30T05:55:36.791Z,99173.41
2022-11-30T05:58:05.331Z,99161.69
2022-11-30T06:00:33.718Z,99169.47
2022-11-30T06:03:02.392Z,99163.91
2022-11-30T06:05:30.900Z,99167.28
2022-11-30T06:08:00.791Z,99167.16
2022-11-30T06:10:30.565Z,99170.69
2022-11-30T06:12:59.494Z,99168.81
2022-11-30T06:15:27.872Z,99170.69
2022-11-30T06:17:57.422Z,99167.66
2022-11-30T06:20:25.858Z,99167.66
2022-11-30T06:22:54.225Z,99170.38
2022-11-30T06:25:22.721Z,99168.81
2022-11-30T06:27:52.624Z,99164.16
2022-11-30T06:30:21.211Z,99165.81
2022-11-30T06:32:50.519Z,99173.88
2022-11-30T06:35:19.295Z,99174.91
2022-11-30T06:37:47.630Z,99166.66
2022-11-30T06:40:17.183Z,99166.19
2022-11-30T06:42:45.807Z,99167.03
2022-11-30T06:45:15.818Z,99167.88
2022-11-30T06:47:44.213Z,99162.34
2022-11-30T06:50:13.966Z,99167.72
2022-11-30T06:52:42.265Z,99165.88
2022-11-30T06:55:10.957Z,99176.63
2022-11-30T06:57:39.483Z,99188.22
2022-11-30T07:00:09.705Z,99190.06
2022-11-30T07:02:39.829Z,99190.06
2022-11-30T07:05:09.121Z,99186.22
2022-11-30T07:07:37.504Z,99191.59
2022-11-30T07:10:06.918Z,99189.63
2022-11-30T07:12:36.636Z,99195.31
2022-11-30T07:15:06.015Z,99193.47
2022-11-30T07:17:34.371Z,99193.59
2022-11-30T07:20:04.450Z,99194.28
2022-11-30T07:22:32.821Z,99197.16
2022-11-30T07:25:19.210Z,99198.16
2022-11-30T07:27:47.723Z,99195.44
2022-11-30T07:30:16.791Z,99196.78
2022-11-30T07:32:45.532Z,99195.78
2022-11-30T07:35:15.730Z,99200.13
2022-11-30T07:37:44.069Z,99198.47
2022-11-30T07:40:13.688Z,99194.94
2022-11-30T07:42:42.542Z,99202.16
2022-11-30T07:45:12.186Z,99196.78
2022-11-30T07:47:40.509Z,99202.16
2022-11-30T07:50:10.365Z,99201.28
2022-11-30T07:52:40.092Z,99198.47
2022-11-30T07:55:10.679Z,99200.31
2022-11-30T07:57:39.068Z,99201.16
2022-11-30T08:00:10.378Z,99199.47
2022-11-30T08:02:38.886Z,99197.75
2022-11-30T08:05:11.396Z,99202.31
2022-11-30T08:07:41.236Z,99206.16
2022-11-30T08:10:11.550Z,99195.41
2022-11-30T08:12:39.922Z,99197.09
2022-11-30T08:15:30.786Z,99202.75
2022-11-30T08:18:05.365Z,99201.78
2022-11-30T08:20:33.913Z,99199.22
2022-11-30T08:23:03.657Z,99206.97
2022-11-30T08:25:32.014Z,99197.94
2022-11-30T08:28:00.681Z,99190.72
2022-11-30T08:30:32.702Z,99189.88
2022-11-30T08:33:01.363Z,99207.84
2022-11-30T08:35:29.737Z,99201.47
2022-11-30T08:37:58.145Z,99199.78
2022-11-30T08:40:28.260Z,99202.31
2022-11-30T08:42:56.774Z,99201.47
2022-11-30T08:45:25.284Z,99201.59
2022-11-30T08:47:55.329Z,99193.53
2022-11-30T08:50:23.983Z,99197.09
2022-11-30T08:52:54.246Z,99198.09
2022-11-30T08:55:22.745Z,99194.41
2022-11-30T08:57:52.727Z,99197.25
2022-11-30T09:00:22.450Z,99207.16
2022-11-30T09:02:50.869Z,99200.06
2022-11-30T09:05:19.374Z,99211.84
2022-11-30T09:07:47.937Z,99201.09
2022-11-30T09:10:16.358Z,99218.88
2022-11-30T09:12:45.051Z,99218.22
2022-11-30T09:15:14.776Z,99219.06
2022-11-30T09:17:43.336Z,99210.81
2022-11-30T09:20:13.210Z,99212.69
2022-11-30T09:22:42.739Z,99221.56
2022-11-30T09:25:11.443Z,99218.88
2022-11-30T09:27:40.044Z,99215.38
2022-11-30T09:30:10.337Z,99208.13
2022-11-30T09:32:40.060Z,99209.00
2022-11-30T09:35:12.798Z,99214.38
2022-11-30T09:37:41.573Z,99210.81
2022-11-30T09:40:11.855Z,99211.69
2022-11-30T09:42:52.964Z,99206.16
2022-11-30T09:45:24.533Z,99209.00
2022-11-30T09:48:48.253Z,99211.69
2022-11-30T09:51:21.326Z,99214.38
2022-11-30T09:53:52.612Z,99212.53
2022-11-30T09:56:24.662Z,99210.81
2022-11-30T09:58:55.863Z,99217.06
2022-11-30T10:01:24.680Z,99209.00
2022-11-30T10:03:54.431Z,99213.50
2022-11-30T10:06:27.783Z,99215.38
2022-11-30T10:09:15.020Z,99213.50
2022-11-30T10:11:51.870Z,99206.47
2022-11-30T10:14:46.135Z,99206.31
2022-11-30T10:17:24.355Z,99204.09
2022-11-30T10:20:24.219Z,99210.81
2022-11-30T10:23:10.788Z,99210.81
2022-11-30T10:25:45.545Z,99208.13
2022-11-30T10:28:45.680Z,99210.81
2022-11-30T10:31:11.057Z,99208.13
2022-11-30T10:33:42.895Z,99203.63
2022-11-30T10:36:15.151Z,99201.78
2022-11-30T10:38:46.087Z,99197.38
2022-11-30T10:41:16.719Z,99200.78
2022-11-30T10:43:46.828Z,99196.22
2022-11-30T10:46:20.523Z,99190.84
2022-11-30T10:48:54.500Z,99195.41
2022-11-30T10:51:24.331Z,99192.69
2022-11-30T10:53:52.737Z,99196.22
2022-11-30T10:56:21.161Z,99195.41
2022-11-30T10:58:55.413Z,99192.69
2022-11-30T11:01:35.273Z,99190.00
2022-11-30T11:04:10.552Z,99192.69
2022-11-30T11:06:43.708Z,99199.78
2022-11-30T11:09:38.825Z,99198.09
2022-11-30T11:12:08.366Z,99198.91
2022-11-30T11:14:38.308Z,99197.25
2022-11-30T11:17:08.159Z,99195.41
2022-11-30T11:19:39.403Z,99197.09
2022-11-30T11:22:17.642Z,99195.41
2022-11-30T11:24:46.191Z,99189.19
2022-11-30T11:27:24.900Z,99190.00
2022-11-30T11:30:08.054Z,99195.25
2022-11-30T11:32:36.438Z,99202.47
2022-11-30T11:35:05.847Z,99197.09
2022-11-30T11:37:38.403Z,99197.09
2022-11-30T11:40:15.788Z,99198.09
2022-11-30T11:42:48.488Z,99197.09
2022-11-30T11:45:18.995Z,99202.47
2022-11-30T11:47:49.161Z,99202.47
2022-11-30T11:50:58.199Z,99196.22
2022-11-30T11:53:25.211Z,99198.91
2022-11-30T11:55:57.612Z,99193.41
2022-11-30T11:58:34.363Z,99198.09
2022-11-30T12:01:31.586Z,99200.78
2022-11-30T12:04:13.897Z,99200.06
2022-11-30T12:06:42.501Z,99204.47
2022-11-30T12:09:16.326Z,99206.16
2022-11-30T12:11:46.469Z,99209.00
2022-11-30T12:14:16.779Z,99207.16
2022-11-30T12:17:13.730Z,99203.63
2022-11-30T12:19:46.629Z,99203.63
2022-11-30T12:22:33.533Z,99205.44
2022-11-30T12:25:22.965Z,99212.69
2022-11-30T12:28:02.557Z,99201.09
2022-11-30T12:30:36.424Z,99209.16
2022-11-30T12:33:14.096Z,99204.78
2022-11-30T12:35:52.214Z,99193.16
2022-11-30T12:38:28.170Z,99202.94
2022-11-30T12:41:02.199Z,99198.53
2022-11-30T12:43:38.835Z,99195.00
2022-11-30T12:46:11.287Z,99201.41
2022-11-30T12:48:43.314Z,99198.03
2022-11-30T12:51:18.038Z,99197.19
2022-11-30T12:53:51.453Z,99199.69
2022-11-30T12:56:30.664Z,99200.56
2022-11-30T12:59:06.969Z,99206.09
2022-11-30T13:01:49.912Z,99199.16
2022-11-30T13:04:21.304Z,99195.50
2022-11-30T13:06:52.696Z,99198.19
2022-11-30T13:09:26.316Z,99194.63
2022-11-30T13:11:59.101Z,99190.97
2022-11-30T13:14:28.553Z,99194.63
2022-11-30T13:17:02.118Z,99191.94
2022-11-30T13:19:55.723Z,99201.00
2022-11-30T13:22:27.503Z,99197.47
2022-11-30T13:25:01.891Z,99198.31
2022-11-30T13:27:34.030Z,99199.31
2022-11-30T13:30:21.608Z,99194.78
2022-11-30T13:32:58.710Z,99201.13
2022-11-30T13:35:43.748Z,99184.16
2022-11-30T13:38:36.366Z,99186.84
2022-11-30T13:41:06.843Z,99194.91
2022-11-30T13:43:40.493Z,99198.31
2022-11-30T13:46:20.162Z,99199.31
2022-11-30T13:48:48.765Z,99209.06
2022-11-30T13:51:35.409Z,99201.84
2022-11-30T13:54:43.640Z,99207.38
2022-11-30T13:58:04.905Z,99205.66
2022-11-30T14:01:01.555Z,99211.03
2022-11-30T14:03:31.484Z,99204.69
2022-11-30T14:06:00.227Z,99203.69
2022-11-30T14:08:46.497Z,99210.06
2022-11-30T14:11:41.227Z,99205.38
2022-11-30T14:14:45.366Z,99212.75
2022-11-30T14:17:25.755Z,99202.00
2022-11-30T14:19:56.547Z,99206.50
2022-11-30T14:22:25.018Z,99213.59
2022-11-30T14:24:53.559Z,99208.22
2022-11-30T14:27:24.559Z,99211.75
2022-11-30T14:29:55.332Z,99202.84
2022-11-30T14:32:44.001Z,99211.03
2022-11-30T14:35:14.185Z,99203.69
2022-11-30T14:37:45.813Z,99201.84
2022-11-30T14:40:20.055Z,99202.00
2022-11-30T14:42:50.806Z,99202.84
2022-11-30T14:45:27.175Z,99206.50
2022-11-30T14:48:07.612Z,99207.38
2022-11-30T14:50:36.309Z,99204.84
2022-11-30T14:53:19.688Z,99202.97
2022-11-30T14:55:52.721Z,99205.66
2022-11-30T14:58:25.977Z,99209.19
2022-11-30T15:00:55.000Z,99213.72
2022-11-30T15:03:27.659Z,99204.00
2022-11-30T15:05:57.869Z,99208.53
2022-11-30T15:08:27.923Z,99210.19
2022-11-30T15:10:57.322Z,99210.34
2022-11-30T15:13:25.894Z,99209.50
2022-11-30T15:15:55.499Z,99221.78
2022-11-30T15:18:24.261Z,99221.41
2022-11-30T15:20:56.849Z,99226.47
2022-11-30T15:23:25.513Z,99223.97
2022-11-30T15:25:56.944Z,99224.66
2022-11-30T15:28:28.470Z,99232.03
2022-11-30T15:30:57.993Z,99231.84
2022-11-30T15:33:29.677Z,99225.63
2022-11-30T15:36:28.288Z,99232.84
2022-11-30T15:38:51.601Z,99228.31
2022-11-30T15:41:22.442Z,99235.41
2022-11-30T15:43:53.005Z,99239.91
2022-11-30T15:46:34.239Z,99241.63
2022-11-30T15:49:17.189Z,99242.47
2022-11-30T15:51:53.237Z,99241.63
2022-11-30T15:54:44.404Z,99251.66
2022-11-30T15:57:13.481Z,99251.53
2022-11-30T15:59:42.002Z,99250.66
2022-11-30T16:02:27.351Z,99256.91
2022-11-30T16:05:25.787Z,99262.28
2022-11-30T16:07:57.309Z,99260.44
2022-11-30T16:10:27.877Z,99258.59
2022-11-30T16:12:56.347Z,99263.97
2022-11-30T16:15:26.274Z,99258.72
2022-11-30T16:17:55.076Z,99254.03
2022-11-30T16:20:24.164Z,99261.41
2022-11-30T16:22:52.972Z,99266.38
2022-11-30T16:25:24.774Z,99274.44
2022-11-30T16:27:53.376Z,99273.56
2022-11-30T16:30:23.463Z,99270.16
2022-11-30T16:32:52.378Z,99278.22
2022-11-30T16:35:23.287Z,99273.88
2022-11-30T16:37:51.996Z,99276.38
2022-11-30T16:40:21.320Z,99278.22
2022-11-30T16:42:52.120Z,99271.00
2022-11-30T16:45:21.958Z,99271.75
2022-11-30T16:47:50.534Z,99266.50
2022-11-30T16:50:19.586Z,99271.59
2022-11-30T16:52:48.067Z,99275.25
2022-11-30T16:55:17.530Z,99278.66
2022-11-30T16:57:45.978Z,99270.88
2022-11-30T17:00:18.379Z,99274.94
2022-11-30T17:02:50.341Z,99270.59
2022-11-30T17:05:19.301Z,99282.34
2022-11-30T17:07:47.697Z,99281.50
2022-11-30T17:10:16.360Z,99278.66
2022-11-30T17:12:44.755Z,99277.66
2022-11-30T17:15:16.612Z,99272.25
2022-11-30T17:17:45.188Z,99283.03
2022-11-30T17:20:15.119Z,99281.34
2022-11-30T17:22:44.099Z,99281.34
2022-11-30T17:25:16.238Z,99277.81
2022-11-30T17:27:44.861Z,99278.66
2022-11-30T17:30:16.377Z,99275.25
2022-11-30T17:32:44.790Z,99279.66
2022-11-30T17:35:13.112Z,99277.81
2022-11-30T17:37:41.571Z,99276.97
2022-11-30T17:40:13.102Z,99274.28
2022-11-30T17:42:41.796Z,99276.13
2022-11-30T17:45:11.200Z,99276.97
2022-11-30T17:47:40.914Z,99278.81
2022-11-30T17:50:10.785Z,99279.81
2022-11-30T17:52:39.110Z,99278.94
2022-11-30T17:55:09.055Z,99280.63
2022-11-30T17:57:39.685Z,99277.13
2022-11-30T18:00:09.858Z,99280.63
2022-11-30T18:02:38.314Z,99279.81
2022-11-30T18:05:09.309Z,99274.44
2022-11-30T18:07:37.948Z,99270.88
2022-11-30T18:10:08.284Z,99281.63
2022-11-30T18:12:36.623Z,99276.97
2022-11-30T18:15:05.606Z,99276.13
2022-11-30T18:17:34.122Z,99274.44
2022-11-30T18:20:02.524Z,99282.50
2022-11-30T18:22:32.953Z,99287.72
2022-11-30T18:25:01.531Z,99276.97
2022-11-30T18:27:29.908Z,99283.31
2022-11-30T18:29:58.412Z,99286.00
2022-11-30T18:32:26.908Z,99291.38
2022-11-30T18:34:55.268Z,99291.38
2022-11-30T18:37:23.750Z,99290.56
2022-11-30T18:39:53.657Z,99291.25
2022-11-30T18:42:22.774Z,99293.25
2022-11-30T18:44:51.267Z,99288.84
2022-11-30T18:47:20.048Z,99289.69
2022-11-30T18:49:48.420Z,99285.31
2022-11-30T18:52:16.911Z,99293.38
2022-11-30T18:54:45.705Z,99294.22
2022-11-30T18:57:15.856Z,99293.38
2022-11-30T18:59:44.229Z,99288.84
2022-11-30T19:02:12.916Z,99293.25
2022-11-30T19:04:41.324Z,99293.25
2022-11-30T19:07:09.741Z,99291.38
2022-11-30T19:09:38.400Z,99282.34
2022-11-30T19:12:07.326Z,99299.44
2022-11-30T19:14:37.906Z,99297.63
2022-11-30T19:17:06.625Z,99299.31
2022-11-30T19:19:35.195Z,99293.09
2022-11-30T19:22:03.689Z,99301.84
2022-11-30T19:24:32.302Z,99295.63
2022-11-30T19:27:00.780Z,99296.47
2022-11-30T19:29:29.213Z,99297.31
2022-11-30T19:31:59.296Z,99303.53
2022-11-30T19:34:27.874Z,99295.47
2022-11-30T19:36:56.674Z,99300.00
2022-11-30T19:39:25.278Z,99294.63
2022-11-30T19:41:53.799Z,99300.84
2022-11-30T19:44:22.291Z,99307.06
2022-11-30T19:46:50.826Z,99303.53
2022-11-30T19:49:20.716Z,99309.75
2022-11-30T19:51:51.761Z,99303.69
2022-11-30T19:54:20.575Z,99303.53
2022-11-30T19:56:49.094Z,99305.22
2022-11-30T19:59:17.769Z,99299.84
2022-11-30T20:01:46.544Z,99305.22
2022-11-30T20:04:14.974Z,99311.44
2022-11-30T20:06:44.776Z,99305.22
2022-11-30T20:09:13.526Z,99306.06
2022-11-30T20:11:44.079Z,99315.97
2022-11-30T20:14:16.567Z,99305.22
2022-11-30T20:16:45.350Z,99295.31
2022-11-30T20:19:14.252Z,99306.94
2022-11-30T20:21:44.106Z,99298.69
2022-11-30T20:24:13.520Z,99309.44
2022-11-30T20:26:44.906Z,99299.69
2022-11-30T20:29:14.787Z,99295.16
2022-11-30T20:31:43.712Z,99304.06
2022-11-30T20:34:12.543Z,99298.69
2022-11-30T20:36:41.189Z,99298.69
2022-11-30T20:39:11.878Z,99294.16
2022-11-30T20:41:40.411Z,99300.53
2022-11-30T20:44:09.008Z,99297.84
2022-11-30T20:46:37.646Z,99299.53
2022-11-30T20:49:14.277Z,99293.31
2022-11-30T20:51:43.196Z,99296.00
2022-11-30T20:54:13.564Z,99298.69
2022-11-30T20:56:42.338Z,99296.00
2022-11-30T20:59:14.841Z,99297.84
2022-11-30T21:01:43.947Z,99288.78
2022-11-30T21:04:12.783Z,99283.72
2022-11-30T21:06:45.644Z,99295.31
2022-11-30T21:09:16.307Z,99287.09
2022-11-30T21:11:44.758Z,99299.69
2022-11-30T21:14:13.389Z,99303.22
2022-11-30T21:16:42.432Z,99296.19
2022-11-30T21:19:11.943Z,99293.50
2022-11-30T21:21:40.359Z,99293.50
2022-11-30T21:24:09.870Z,99299.69
2022-11-30T21:26:41.468Z,99295.16
2022-11-30T21:29:13.144Z,99289.78
2022-11-30T21:31:41.863Z,99288.78
2022-11-30T21:34:10.314Z,99289.78
2022-11-30T21:36:38.810Z,99289.78
2022-11-30T21:39:07.670Z,99287.09
2022-11-30T21:41:37.163Z,99296.00
2022-11-30T21:44:07.274Z,99294.16
2022-11-30T21:46:35.824Z,99294.16
2022-11-30T21:49:04.458Z,99283.72
2022-11-30T21:51:32.830Z,99295.16
2022-11-30T21:54:02.453Z,99297.00
2022-11-30T21:56:32.537Z,99286.25
2022-11-30T21:59:00.951Z,99297.84
2022-11-30T22:01:32.073Z,99293.31
2022-11-30T22:04:00.936Z,99293.31
2022-11-30T22:06:30.860Z,99291.63
2022-11-30T22:09:02.929Z,99288.94
2022-11-30T22:11:32.027Z,99282.75
2022-11-30T22:14:01.539Z,99284.56
2022-11-30T22:16:35.917Z,99291.63
2022-11-30T22:19:05.447Z,99285.44
2022-11-30T22:21:33.851Z,99291.78
2022-11-30T22:24:03.313Z,99299.84
2022-11-30T22:26:33.112Z,99294.47
2022-11-30T22:29:03.335Z,99295.47
2022-11-30T22:31:34.590Z,99299.00
2022-11-30T22:34:03.019Z,99298.16
2022-11-30T22:36:32.643Z,99303.53
2022-11-30T22:39:02.238Z,99298.16
2022-11-30T22:41:31.000Z,99294.63
2022-11-30T22:43:59.518Z,99294.63
2022-11-30T22:46:29.340Z,99294.63
2022-11-30T22:49:00.389Z,99299.16
2022-11-30T22:51:30.505Z,99298.31
2022-11-30T22:53:59.454Z,99292.09
2022-11-30T22:56:29.512Z,99300.16
2022-11-30T22:59:00.022Z,99302.69
2022-11-30T23:01:29.756Z,99297.47
2022-11-30T23:04:03.768Z,99292.09
2022-11-30T23:06:32.429Z,99284.88
2022-11-30T23:09:01.068Z,99288.38
2022-11-30T23:11:29.832Z,99278.81
2022-11-30T23:13:58.204Z,99286.72
2022-11-30T23:16:26.881Z,99285.03
2022-11-30T23:18:57.311Z,99280.50
2022-11-30T23:21:30.111Z,99283.19
2022-11-30T23:24:00.558Z,99282.34
2022-11-30T23:26:30.666Z,99277.81
2022-11-30T23:29:01.249Z,99271.59
2022-11-30T23:31:34.242Z,99278.66
2022-11-30T23:34:05.592Z,99272.44
2022-11-30T23:36:35.492Z,99269.75
2022-11-30T23:39:05.196Z,99271.75
2022-11-30T23:41:33.634Z,99280.63
2022-11-30T23:44:01.967Z,99274.28
2022-11-30T23:46:30.453Z,99271.59
2022-11-30T23:48:58.857Z,99270.75
2022-11-30T23:51:27.299Z,99268.91
2022-11-30T23:53:57.202Z,99263.53
2022-11-30T23:56:25.604Z,99264.38
2022-11-30T23:58:54.061Z,99260.84
